createdAt,value
2018-09-04T00:02:25.673Z,17.59
2018-09-04T00:05:30.609Z,17.68
2018-09-04T00:08:35.638Z,17.72
2018-09-04T00:11:40.556Z,17.70
2018-09-04T00:14:45.517Z,17.70
2018-09-04T00:17:50.432Z,17.68
2018-09-04T00:20:55.329Z,17.71
2018-09-04T00:24:00.739Z,17.72
2018-09-04T00:27:05.666Z,17.66
2018-09-04T00:30:10.600Z,17.69
2018-09-04T00:33:15.536Z,17.74
2018-09-04T00:36:20.438Z,17.67
2018-09-04T00:39:25.365Z,17.65
2018-09-04T00:42:30.284Z,17.65
2018-09-04T00:45:35.280Z,17.64
2018-09-04T00:48:40.237Z,17.65
2018-09-04T00:51:45.160Z,17.63
2018-09-04T00:54:50.157Z,17.60
2018-09-04T00:57:55.089Z,17.57
2018-09-04T01:01:00.010Z,17.48
2018-09-04T01:04:05.244Z,17.28
2018-09-04T01:07:10.166Z,17.21
2018-09-04T01:10:15.066Z,17.20
2018-09-04T01:13:20.024Z,17.19
2018-09-04T01:16:24.944Z,17.10
2018-09-04T01:19:29.868Z,17.03
2018-09-04T01:22:34.830Z,17.06
2018-09-04T01:25:39.753Z,17.04
2018-09-04T01:28:44.689Z,17.00
2018-09-04T01:31:49.646Z,17.03
2018-09-04T01:34:54.581Z,17.07
2018-09-04T01:37:59.538Z,17.06
2018-09-04T01:41:04.617Z,17.12
2018-09-04T01:44:09.525Z,17.14
2018-09-04T01:47:14.465Z,16.99
2018-09-04T01:50:19.383Z,17.01
2018-09-04T01:53:24.319Z,17.03
2018-09-04T01:56:29.238Z,17.07
2018-09-04T01:59:34.172Z,17.10
2018-09-04T02:02:39.121Z,17.12
2018-09-04T02:05:44.090Z,17.10
2018-09-04T02:08:49.006Z,17.07
2018-09-04T02:11:54.165Z,17.03
2018-09-04T02:14:59.094Z,16.97
2018-09-04T02:18:04.273Z,16.94
2018-09-04T02:21:09.225Z,16.93
2018-09-04T02:24:14.169Z,16.89
2018-09-04T02:27:25.254Z,16.86
2018-09-04T02:30:30.163Z,16.81
2018-09-04T02:33:35.261Z,16.72
2018-09-04T02:36:40.193Z,16.68
2018-09-04T02:39:45.109Z,16.80
2018-09-04T02:42:50.081Z,16.88
2018-09-04T02:45:55.002Z,16.95
2018-09-04T02:48:59.936Z,17.01
2018-09-04T02:52:05.395Z,16.97
2018-09-04T02:55:10.927Z,16.84
2018-09-04T02:58:15.910Z,16.82
2018-09-04T03:01:20.873Z,16.78
2018-09-04T03:04:25.784Z,16.87
2018-09-04T03:07:30.716Z,16.97
2018-09-04T03:10:35.639Z,17.02
2018-09-04T03:13:40.592Z,17.09
2018-09-04T03:16:45.524Z,17.13
2018-09-04T03:19:50.473Z,17.16
2018-09-04T03:22:55.668Z,17.17
2018-09-04T03:26:00.640Z,17.00
2018-09-04T03:29:05.578Z,16.96
2018-09-04T03:32:10.504Z,17.07
2018-09-04T03:35:15.431Z,17.14
2018-09-04T03:38:20.382Z,17.20
2018-09-04T03:41:25.297Z,17.23
2018-09-04T03:44:30.323Z,17.27
2018-09-04T03:47:35.149Z,17.18
2018-09-04T03:50:40.300Z,17.22
2018-09-04T03:53:45.255Z,17.27
2018-09-04T03:56:50.187Z,17.28
2018-09-04T03:59:55.135Z,17.25
2018-09-04T04:03:00.058Z,17.25
2018-09-04T04:06:05.061Z,17.28
2018-09-04T04:09:10.904Z,17.32
2018-09-04T04:12:15.837Z,17.33
2018-09-04T04:15:20.773Z,17.34
2018-09-04T04:18:25.718Z,17.36
2018-09-04T04:21:30.658Z,17.35
2018-09-04T04:24:35.602Z,17.37
2018-09-04T04:27:40.521Z,17.37
2018-09-04T04:30:45.432Z,17.37
2018-09-04T04:33:50.342Z,17.38
2018-09-04T04:36:55.236Z,17.27
2018-09-04T04:40:00.225Z,17.23
2018-09-04T04:43:05.117Z,17.30
2018-09-04T04:46:10.025Z,17.34
2018-09-04T04:49:14.960Z,17.33
2018-09-04T04:52:19.861Z,17.36
2018-09-04T04:55:24.809Z,17.36
2018-09-04T04:58:29.749Z,17.36
2018-09-04T05:01:34.703Z,17.36
2018-09-04T05:04:39.613Z,17.40
2018-09-04T05:07:44.537Z,17.46
2018-09-04T05:10:49.428Z,17.48
2018-09-04T05:13:54.385Z,17.48
2018-09-04T05:16:59.347Z,17.50
2018-09-04T05:20:04.569Z,17.52
2018-09-04T05:23:09.553Z,17.53
2018-09-04T05:26:14.475Z,17.49
2018-09-04T05:29:19.434Z,17.52
2018-09-04T05:32:31.965Z,17.55
2018-09-04T05:35:43.476Z,17.60
2018-09-04T05:38:48.415Z,17.64
2018-09-04T05:41:53.424Z,17.69
2018-09-04T05:44:58.408Z,17.66
2018-09-04T05:48:18.390Z,17.68
2018-09-04T05:51:23.322Z,17.69
2018-09-04T05:54:28.292Z,17.61
2018-09-04T05:57:33.233Z,17.62
2018-09-04T06:00:52.429Z,17.75
2018-09-04T06:03:57.389Z,17.73
2018-09-04T06:07:02.324Z,17.80
2018-09-04T06:10:07.388Z,17.91
2018-09-04T06:13:12.310Z,17.99
2018-09-04T06:16:17.390Z,18.03
2018-09-04T06:19:22.354Z,18.08
2018-09-04T06:22:27.341Z,17.97
2018-09-04T06:25:32.282Z,17.97
2018-09-04T06:28:37.234Z,18.10
2018-09-04T06:31:42.151Z,18.17
2018-09-04T06:34:47.077Z,18.24
2018-09-04T06:37:51.995Z,18.29
2018-09-04T06:40:56.923Z,18.38
2018-09-04T06:44:01.873Z,18.45
2018-09-04T06:47:06.816Z,18.48
2018-09-04T06:50:11.783Z,18.55
2018-09-04T06:53:16.727Z,18.62
2018-09-04T06:56:21.703Z,18.66
2018-09-04T06:59:26.689Z,18.60
2018-09-04T07:02:31.613Z,18.61
2018-09-04T07:05:36.569Z,18.61
2018-09-04T07:08:41.501Z,18.81
2018-09-04T07:11:46.442Z,18.87
2018-09-04T07:14:51.405Z,18.92
2018-09-04T07:17:56.445Z,19.14
2018-09-04T07:21:01.565Z,19.32
2018-09-04T07:24:06.486Z,19.53
2018-09-04T07:27:11.458Z,19.67
2018-09-04T07:30:16.403Z,19.84
2018-09-04T07:33:21.638Z,20.05
2018-09-04T07:36:26.604Z,20.29
2018-09-04T07:39:31.555Z,20.64
2018-09-04T07:42:36.550Z,20.86
2018-09-04T07:45:41.544Z,21.10
2018-09-04T07:48:46.531Z,21.33
2018-09-04T07:51:51.855Z,21.46
2018-09-04T07:54:56.949Z,21.46
2018-09-04T07:58:01.923Z,21.53
2018-09-04T08:01:06.969Z,21.75
2018-09-04T08:04:11.898Z,21.81
2018-09-04T08:07:16.899Z,21.80
2018-09-04T08:10:21.842Z,21.77
2018-09-04T08:13:26.781Z,21.58
2018-09-04T08:16:31.734Z,21.63
2018-09-04T08:19:36.657Z,21.64
2018-09-04T08:22:41.624Z,21.92
2018-09-04T08:25:46.559Z,22.13
2018-09-04T08:28:51.497Z,22.33
2018-09-04T08:31:56.441Z,22.52
2018-09-04T08:35:02.164Z,22.61
2018-09-04T08:38:07.100Z,22.45
2018-09-04T08:41:12.010Z,22.39
2018-09-04T08:44:16.940Z,22.54
2018-09-04T08:47:21.970Z,22.33
2018-09-04T08:50:27.581Z,22.27
2018-09-04T08:53:32.504Z,22.33
2018-09-04T08:56:37.409Z,22.34
2018-09-04T08:59:42.405Z,22.29
2018-09-04T09:02:47.319Z,22.30
2018-09-04T09:05:52.489Z,22.40
2018-09-04T09:08:57.426Z,22.33
2018-09-04T09:12:02.421Z,22.52
2018-09-04T09:15:07.401Z,22.93
2018-09-04T09:18:12.448Z,23.37
2018-09-04T09:21:17.437Z,23.53
2018-09-04T09:24:22.379Z,23.79
2018-09-04T09:27:27.450Z,23.97
2018-09-04T09:30:33.056Z,23.94
2018-09-04T09:33:38.001Z,23.80
2018-09-04T09:36:43.014Z,23.63
2018-09-04T09:39:47.937Z,23.41
2018-09-04T09:42:52.874Z,23.56
2018-09-04T09:45:57.880Z,24.25
2018-09-04T09:49:02.848Z,25.13
2018-09-04T09:52:07.805Z,26.08
2018-09-04T09:55:12.740Z,27.05
2018-09-04T09:58:17.709Z,27.72
2018-09-04T10:01:28.458Z,27.03
2018-09-04T10:04:33.407Z,26.17
2018-09-04T10:07:38.477Z,25.63
2018-09-04T10:10:43.479Z,24.90
2018-09-04T10:13:49.013Z,24.42
2018-09-04T10:16:53.993Z,24.26
2018-09-04T10:19:59.128Z,24.13
2018-09-04T10:23:04.069Z,23.98
2018-09-04T10:26:09.080Z,24.06
2018-09-04T10:29:14.053Z,24.32
2018-09-04T10:32:19.034Z,24.44
2018-09-04T10:35:24.073Z,24.67
2018-09-04T10:38:29.076Z,25.16
2018-09-04T10:41:34.051Z,25.79
2018-09-04T10:44:39.070Z,26.53
2018-09-04T10:47:44.057Z,27.33
2018-09-04T10:50:49.057Z,28.05
2018-09-04T10:53:54.025Z,28.64
2018-09-04T10:56:59.023Z,29.01
2018-09-04T11:00:04.062Z,29.47
2018-09-04T11:03:09.069Z,29.16
2018-09-04T11:06:14.028Z,28.82
2018-09-04T11:09:19.039Z,28.71
2018-09-04T11:12:23.969Z,28.17
2018-09-04T11:15:28.942Z,27.81
2018-09-04T11:18:33.880Z,27.54
2018-09-04T11:21:38.978Z,27.31
2018-09-04T11:24:43.984Z,27.12
2018-09-04T11:27:48.932Z,27.27
2018-09-04T11:30:53.905Z,27.39
2018-09-04T11:33:58.866Z,27.25
2018-09-04T11:37:03.916Z,26.49
2018-09-04T11:40:09.147Z,26.20
2018-09-04T11:43:14.094Z,26.02
2018-09-04T11:46:19.044Z,25.83
2018-09-04T11:49:24.005Z,25.67
2018-09-04T11:52:29.098Z,25.67
2018-09-04T11:55:33.985Z,25.61
2018-09-04T11:58:39.124Z,25.87
2018-09-04T12:01:47.597Z,26.11
2018-09-04T12:04:52.583Z,26.41
2018-09-04T12:07:57.641Z,26.43
2018-09-04T12:11:02.616Z,26.17
2018-09-04T12:14:07.607Z,25.99
2018-09-04T12:17:12.649Z,25.89
2018-09-04T12:20:34.259Z,25.87
2018-09-04T12:23:39.600Z,25.77
2018-09-04T12:26:44.582Z,25.66
2018-09-04T12:29:49.529Z,25.73
2018-09-04T12:32:54.572Z,26.12
2018-09-04T12:35:59.528Z,26.05
2018-09-04T12:39:05.330Z,26.11
2018-09-04T12:42:10.305Z,25.96
2018-09-04T12:45:15.261Z,25.82
2018-09-04T12:48:24.750Z,25.88
2018-09-04T12:51:29.732Z,25.75
2018-09-04T12:54:34.736Z,25.83
2018-09-04T12:57:39.639Z,26.12
2018-09-04T13:00:45.594Z,26.46
2018-09-04T13:03:50.544Z,26.61
2018-09-04T13:06:55.973Z,26.95
2018-09-04T13:10:01.633Z,27.18
2018-09-04T13:13:06.578Z,27.53
2018-09-04T13:16:11.599Z,27.65
2018-09-04T13:19:16.485Z,27.63
2018-09-04T13:22:21.482Z,27.84
2018-09-04T13:25:26.424Z,27.96
2018-09-04T13:28:32.181Z,27.55
2018-09-04T13:31:37.082Z,27.23
2018-09-04T13:34:41.991Z,26.92
2018-09-04T13:37:46.900Z,26.56
2018-09-04T13:40:57.597Z,26.45
2018-09-04T13:44:02.562Z,26.47
2018-09-04T13:47:07.509Z,26.36
2018-09-04T13:50:12.505Z,26.21
2018-09-04T13:53:17.457Z,26.17
2018-09-04T13:56:22.385Z,26.18
2018-09-04T13:59:27.295Z,26.24
2018-09-04T14:02:32.281Z,26.16
2018-09-04T14:05:37.237Z,26.22
2018-09-04T14:08:42.197Z,26.40
2018-09-04T14:11:47.141Z,26.48
2018-09-04T14:14:52.059Z,26.61
2018-09-04T14:17:57.005Z,26.61
2018-09-04T14:21:02.168Z,26.61
2018-09-04T14:24:07.057Z,26.63
2018-09-04T14:27:12.005Z,26.61
2018-09-04T14:30:16.999Z,26.64
2018-09-04T14:33:21.936Z,26.63
2018-09-04T14:36:26.987Z,26.83
2018-09-04T14:39:31.862Z,26.73
2018-09-04T14:42:36.822Z,26.63
2018-09-04T14:45:41.828Z,26.57
2018-09-04T14:48:46.809Z,26.52
2018-09-04T14:51:51.761Z,26.53
2018-09-04T14:54:56.809Z,26.45
2018-09-04T14:58:01.761Z,26.49
2018-09-04T15:01:06.737Z,26.44
2018-09-04T15:04:11.713Z,26.39
2018-09-04T15:07:16.723Z,26.03
2018-09-04T15:10:21.636Z,26.12
2018-09-04T15:13:26.599Z,26.19
2018-09-04T15:16:31.611Z,26.03
2018-09-04T15:19:36.594Z,26.00
2018-09-04T15:22:41.587Z,26.03
2018-09-04T15:25:46.571Z,26.07
2018-09-04T15:28:51.562Z,26.23
2018-09-04T15:31:56.569Z,26.23
2018-09-04T15:35:01.528Z,26.16
2018-09-04T15:38:06.503Z,26.15
2018-09-04T15:41:11.452Z,26.14
2018-09-04T15:44:16.456Z,26.11
2018-09-04T15:47:21.501Z,26.23
2018-09-04T15:50:26.437Z,26.38
2018-09-04T15:53:31.382Z,26.48
2018-09-04T15:56:36.348Z,26.51
2018-09-04T15:59:41.293Z,26.61
2018-09-04T16:02:46.260Z,26.75
2018-09-04T16:05:51.217Z,26.83
2018-09-04T16:08:56.315Z,26.78
2018-09-04T16:12:01.399Z,26.85
2018-09-04T16:15:06.397Z,26.83
2018-09-04T16:18:11.445Z,26.98
2018-09-04T16:21:16.571Z,27.08
2018-09-04T16:24:21.602Z,27.06
2018-09-04T16:27:26.504Z,26.98
2018-09-04T16:30:31.420Z,26.92
2018-09-04T16:33:36.449Z,26.93
2018-09-04T16:36:41.404Z,26.80
2018-09-04T16:39:46.345Z,26.77
2018-09-04T16:42:52.793Z,26.55
2018-09-04T16:45:58.813Z,26.33
2018-09-04T16:49:04.137Z,26.30
2018-09-04T16:52:09.599Z,26.27
2018-09-04T16:55:14.549Z,26.30
2018-09-04T16:58:19.761Z,26.19
2018-09-04T17:01:24.729Z,26.14
2018-09-04T17:04:29.862Z,25.89
2018-09-04T17:07:34.873Z,25.86
2018-09-04T17:10:40.348Z,25.70
2018-09-04T17:13:45.481Z,25.65
2018-09-04T17:16:51.066Z,25.61
2018-09-04T17:19:56.676Z,25.34
2018-09-04T17:23:01.657Z,25.24
2018-09-04T17:26:06.708Z,25.30
2018-09-04T17:29:11.661Z,25.30
2018-09-04T17:32:16.739Z,25.25
2018-09-04T17:35:22.713Z,25.16
2018-09-04T17:38:27.971Z,25.06
2018-09-04T17:41:33.571Z,24.84
2018-09-04T17:44:38.966Z,24.76
2018-09-04T17:47:44.449Z,24.67
2018-09-04T17:50:49.418Z,24.53
2018-09-04T17:53:54.769Z,24.40
2018-09-04T17:57:00.134Z,24.34
2018-09-04T18:00:06.237Z,24.16
2018-09-04T18:03:11.670Z,23.67
2018-09-04T18:06:16.661Z,23.34
2018-09-04T18:09:21.692Z,23.17
2018-09-04T18:12:26.776Z,23.08
2018-09-04T18:15:31.858Z,22.90
2018-09-04T18:18:37.129Z,22.82
2018-09-04T18:21:42.397Z,22.87
2018-09-04T18:24:47.542Z,22.84
2018-09-04T18:27:52.491Z,22.76
2018-09-04T18:30:57.476Z,22.60
2018-09-04T18:34:03.827Z,22.52
2018-09-04T18:37:08.837Z,22.47
2018-09-04T18:40:13.990Z,22.28
2018-09-04T18:43:18.918Z,22.29
2018-09-04T18:46:24.341Z,22.39
2018-09-04T18:49:29.267Z,22.34
2018-09-04T18:52:34.351Z,22.31
2018-09-04T18:55:39.330Z,22.39
2018-09-04T18:58:44.258Z,22.38
2018-09-04T19:01:49.725Z,22.22
2018-09-04T19:04:55.102Z,22.13
2018-09-04T19:08:00.313Z,22.09
2018-09-04T19:11:05.449Z,21.92
2018-09-04T19:14:10.816Z,21.63
2018-09-04T19:17:15.738Z,21.49
2018-09-04T19:20:21.025Z,21.46
2018-09-04T19:23:25.935Z,21.52
2018-09-04T19:26:31.060Z,21.69
2018-09-04T19:29:36.461Z,21.75
2018-09-04T19:32:41.666Z,21.62
2018-09-04T19:35:46.598Z,21.66
2018-09-04T19:38:51.566Z,21.46
2018-09-04T19:41:56.515Z,21.43
2018-09-04T19:45:01.841Z,21.50
2018-09-04T19:48:06.899Z,21.62
2018-09-04T19:51:11.942Z,21.68
2018-09-04T19:54:17.258Z,21.69
2018-09-04T19:57:22.358Z,21.57
2018-09-04T20:00:27.697Z,21.44
2018-09-04T20:03:32.971Z,21.32
2018-09-04T20:06:38.219Z,21.39
2018-09-04T20:09:43.189Z,21.45
2018-09-04T20:12:48.585Z,21.38
2018-09-04T20:15:53.536Z,21.34
2018-09-04T20:18:58.957Z,21.41
2018-09-04T20:22:05.826Z,21.44
2018-09-04T20:25:12.197Z,21.35
2018-09-04T20:28:17.178Z,21.19
2018-09-04T20:31:22.138Z,21.19
2018-09-04T20:34:27.356Z,21.22
2018-09-04T20:37:32.814Z,21.26
2018-09-04T20:40:37.946Z,21.27
2018-09-04T20:43:43.393Z,21.25
2018-09-04T20:46:48.419Z,21.04
2018-09-04T20:49:53.464Z,20.99
2018-09-04T20:52:58.439Z,20.90
2018-09-04T20:56:03.405Z,20.95
2018-09-04T20:59:20.217Z,21.01
2018-09-04T21:02:36.849Z,20.96
2018-09-04T21:05:53.509Z,20.68
2018-09-04T21:09:05.084Z,20.61
2018-09-04T21:12:10.040Z,20.72
2018-09-04T21:15:14.966Z,20.80
2018-09-04T21:18:19.897Z,20.81
2018-09-04T21:21:24.852Z,20.87
2018-09-04T21:24:29.841Z,20.92
2018-09-04T21:27:34.794Z,20.89
2018-09-04T21:30:39.763Z,20.75
2018-09-04T21:33:44.717Z,20.63
2018-09-04T21:36:49.687Z,20.61
2018-09-04T21:39:54.622Z,20.47
2018-09-04T21:42:59.565Z,20.32
2018-09-04T21:46:04.620Z,20.44
2018-09-04T21:49:09.576Z,20.54
2018-09-04T21:52:14.508Z,20.56
2018-09-04T21:55:19.447Z,20.57
2018-09-04T22:02:10.862Z,20.13
2018-09-04T22:05:15.884Z,20.17
2018-09-04T22:08:20.848Z,20.25
2018-09-04T22:11:25.820Z,20.29
2018-09-04T22:14:30.788Z,20.31
2018-09-04T22:17:36.502Z,20.24
2018-09-04T22:20:41.445Z,20.15
2018-09-04T22:23:46.372Z,20.14
2018-09-04T22:26:51.306Z,20.11
2018-09-04T22:29:56.220Z,20.05
2018-09-04T22:33:01.141Z,19.89
2018-09-04T22:36:06.329Z,19.79
2018-09-04T22:39:11.259Z,19.74
2018-09-04T22:42:16.165Z,19.78
2018-09-04T22:45:21.096Z,19.80
2018-09-04T22:48:26.004Z,19.76
2018-09-04T22:51:37.452Z,19.68
2018-09-04T22:54:42.389Z,19.61
2018-09-04T22:57:47.313Z,19.49
2018-09-04T23:00:52.280Z,19.32
2018-09-04T23:03:57.637Z,19.24
2018-09-04T23:07:02.595Z,19.23
2018-09-04T23:10:07.660Z,19.20
2018-09-04T23:13:12.585Z,19.12
2018-09-04T23:16:17.548Z,18.89
2018-09-04T23:19:22.457Z,18.76
2018-09-04T23:22:27.403Z,18.76
2018-09-04T23:25:32.321Z,18.80
2018-09-04T23:28:37.245Z,18.76
2018-09-04T23:31:42.152Z,18.67
2018-09-04T23:34:47.065Z,18.58
2018-09-04T23:37:51.980Z,18.55
2018-09-04T23:40:56.897Z,18.55
2018-09-04T23:44:01.876Z,18.47
2018-09-04T23:47:06.813Z,18.38
2018-09-04T23:50:11.748Z,18.30
2018-09-04T23:53:16.677Z,18.30
2018-09-04T23:56:21.624Z,18.29
2018-09-04T23:59:26.537Z,18.19
